Time;durP1;ratioP1;P1;durP2;ratioP2;P2;SDS_P1;SDS_P2;PMS_P1;PMS_P2;Temp;Humidity;BMP_temperature;BMP_pressure;BME280_temperature;BME280_humidity;BME280_pressure;Samples;Min_cycle;Max_cycle;Signal;HPM_P1;HPM_P2
2023/05/21 00:01:24;;;;;;;18.53;14.77;;;16.80;99.90;;;;;;5075940;28;20549;-68
2023/05/21 00:03:51;;;;;;;15.43;13.83;;;16.70;99.90;;;;;;5075826;28;20485;-68
2023/05/21 00:06:19;;;;;;;15.50;14.10;;;16.70;99.90;;;;;;5075840;28;20464;-67
2023/05/21 00:08:47;;;;;;;16.73;15.13;;;16.70;99.90;;;;;;5075686;28;20939;-67
2023/05/21 00:11:14;;;;;;;15.63;13.97;;;16.70;99.90;;;;;;5075457;28;20454;-67
2023/05/21 00:13:41;;;;;;;15.90;14.40;;;16.60;99.90;;;;;;5075972;28;20903;-67
2023/05/21 00:16:09;;;;;;;14.20;12.90;;;16.60;99.90;;;;;;5075502;28;20464;-68
2023/05/21 00:18:38;;;;;;;14.97;13.47;;;16.60;99.90;;;;;;5075806;28;20481;-66
2023/05/21 00:21:05;;;;;;;17.07;15.37;;;16.60;99.90;;;;;;5075849;28;20891;-67
2023/05/21 00:23:32;;;;;;;16.10;14.60;;;16.60;99.90;;;;;;5075621;28;20454;-67
2023/05/21 00:26:01;;;;;;;15.97;14.50;;;16.60;99.90;;;;;;5075504;28;20558;-67
2023/05/21 00:28:27;;;;;;;15.83;14.33;;;16.50;99.90;;;;;;5075371;28;20450;-67
2023/05/21 00:30:54;;;;;;;16.33;14.77;;;16.60;99.90;;;;;;5075718;28;20468;-68
2023/05/21 00:33:21;;;;;;;18.20;15.70;;;16.50;99.90;;;;;;5076028;28;20454;-68
2023/05/21 00:35:48;;;;;;;15.30;13.90;;;16.50;99.90;;;;;;5075643;28;20454;-67
2023/05/21 00:38:16;;;;;;;16.83;14.60;;;16.50;99.90;;;;;;5075152;28;20945;-68
2023/05/21 00:40:43;;;;;;;15.50;13.90;;;16.40;99.90;;;;;;5075499;28;20446;-67
2023/05/21 00:43:13;;;;;;;15.40;13.90;;;16.40;99.90;;;;;;5075592;28;20759;-67
2023/05/21 00:45:43;;;;;;;17.43;14.20;;;16.40;99.90;;;;;;5075241;28;20474;-68
2023/05/21 00:48:13;;;;;;;16.90;15.10;;;16.40;99.90;;;;;;5075534;28;20470;-68
2023/05/21 00:50:40;;;;;;;15.27;13.93;;;16.40;99.90;;;;;;5074849;28;20454;-67
2023/05/21 00:53:08;;;;;;;16.97;15.30;;;16.30;99.90;;;;;;5075275;28;20455;-67
2023/05/21 00:55:35;;;;;;;15.03;13.43;;;16.30;99.90;;;;;;5075312;28;20741;-68
2023/05/21 00:58:03;;;;;;;16.10;14.40;;;16.30;99.90;;;;;;5074915;28;20464;-67
2023/05/21 01:00:33;;;;;;;15.90;14.37;;;16.30;99.90;;;;;;5075077;28;20469;-67
2023/05/21 01:03:00;;;;;;;16.53;14.93;;;16.30;99.90;;;;;;5075005;28;20541;-67
2023/05/21 01:05:28;;;;;;;16.43;14.73;;;16.30;99.90;;;;;;5074943;28;20504;-68
2023/05/21 01:07:55;;;;;;;16.57;15.07;;;16.30;99.90;;;;;;5074456;28;20453;-68
2023/05/21 01:10:23;;;;;;;15.97;14.50;;;16.30;99.90;;;;;;5074567;28;20879;-67
2023/05/21 01:12:51;;;;;;;16.27;14.57;;;16.20;99.90;;;;;;5074397;28;20510;-67
2023/05/21 01:15:18;;;;;;;17.30;15.27;;;16.20;99.90;;;;;;5074911;28;20454;-67
2023/05/21 01:17:47;;;;;;;16.73;15.17;;;16.20;99.90;;;;;;5074677;28;20464;-67
2023/05/21 01:20:16;;;;;;;16.60;14.87;;;16.20;99.90;;;;;;5074627;28;20764;-67
2023/05/21 01:22:51;;;;;;;16.33;14.73;;;16.20;99.90;;;;;;5073645;28;20477;-67
2023/05/21 01:25:18;;;;;;;17.47;15.73;;;16.20;99.90;;;;;;5074685;28;20472;-67
2023/05/21 01:27:45;;;;;;;16.80;15.13;;;16.10;99.90;;;;;;5074451;28;20549;-68
2023/05/21 01:30:14;;;;;;;16.93;15.13;;;16.10;99.90;;;;;;5074730;28;20454;-69
2023/05/21 01:32:48;;;;;;;18.13;15.53;;;16.10;99.90;;;;;;5074314;28;20450;-68
2023/05/21 01:35:21;;;;;;;17.40;15.60;;;16.10;99.90;;;;;;5074557;28;20496;-67
2023/05/21 01:37:57;;;;;;;16.13;14.60;;;16.10;99.90;;;;;;5073996;28;20526;-67
2023/05/21 01:40:29;;;;;;;17.77;15.93;;;16.10;99.90;;;;;;5074278;28;20442;-67
2023/05/21 01:42:58;;;;;;;16.20;14.63;;;16.10;99.90;;;;;;5074500;28;20453;-68
2023/05/21 01:45:27;;;;;;;19.30;15.90;;;16.10;99.90;;;;;;5073921;28;20478;-68
2023/05/21 01:47:56;;;;;;;19.20;17.20;;;16.00;99.90;;;;;;5074108;28;20454;-67
2023/05/21 01:50:24;;;;;;;21.47;15.80;;;16.00;99.90;;;;;;5074227;28;20549;-67
2023/05/21 01:52:55;;;;;;;18.13;16.33;;;16.00;99.90;;;;;;5073932;28;20458;-68
2023/05/21 01:55:24;;;;;;;17.87;16.07;;;16.00;99.90;;;;;;5073976;28;20445;-67
2023/05/21 01:57:52;;;;;;;18.13;16.20;;;16.00;99.90;;;;;;5074379;28;20541;-67
2023/05/21 02:00:19;;;;;;;18.47;16.47;;;15.90;99.90;;;;;;5074230;28;20527;-68
2023/05/21 02:02:46;;;;;;;19.07;16.93;;;15.90;99.90;;;;;;5074165;28;20545;-68
2023/05/21 02:05:13;;;;;;;17.97;16.20;;;15.90;99.90;;;;;;5073991;28;20478;-68
2023/05/21 02:07:40;;;;;;;17.87;16.03;;;15.90;99.90;;;;;;5073720;28;20952;-68
2023/05/21 02:10:09;;;;;;;18.20;16.50;;;15.90;99.90;;;;;;5074116;28;20468;-68
2023/05/21 02:12:36;;;;;;;19.73;17.53;;;15.90;99.90;;;;;;5073884;28;20902;-67
2023/05/21 02:15:04;;;;;;;19.57;17.67;;;15.80;99.90;;;;;;5074132;28;20549;-67
2023/05/21 02:17:32;;;;;;;21.00;18.30;;;15.80;99.90;;;;;;5073898;28;20879;-67
2023/05/21 02:20:07;;;;;;;20.93;18.80;;;15.80;99.90;;;;;;5073562;28;20477;-67
2023/05/21 02:22:33;;;;;;;21.73;17.63;;;15.80;99.90;;;;;;5073946;28;20441;-67
2023/05/21 02:25:00;;;;;;;21.07;19.00;;;15.80;99.90;;;;;;5073973;28;20482;-67
2023/05/21 02:27:30;;;;;;;20.37;18.20;;;15.80;99.90;;;;;;5073839;28;20460;-67
2023/05/21 02:29:57;;;;;;;20.30;18.20;;;15.80;99.90;;;;;;5073356;28;20544;-68
2023/05/21 02:32:24;;;;;;;21.00;18.70;;;15.80;99.90;;;;;;5073961;28;20450;-67
2023/05/21 02:34:51;;;;;;;21.33;18.90;;;15.80;99.90;;;;;;5077472;28;20461;-67
2023/05/21 02:37:19;;;;;;;21.60;19.30;;;15.70;99.90;;;;;;5077559;28;20464;-67
2023/05/21 02:39:46;;;;;;;23.10;20.30;;;15.70;99.90;;;;;;5077220;28;20578;-67
2023/05/21 02:42:13;;;;;;;21.33;19.13;;;15.70;99.90;;;;;;5077768;28;20541;-68
2023/05/21 02:44:41;;;;;;;20.70;18.60;;;15.70;99.90;;;;;;5077381;28;20484;-67
2023/05/21 02:47:09;;;;;;;22.03;19.73;;;15.70;99.90;;;;;;5077433;28;20465;-67
2023/05/21 02:49:36;;;;;;;22.43;20.23;;;15.70;99.90;;;;;;5077601;28;20461;-67
2023/05/21 02:52:02;;;;;;;20.43;18.33;;;15.70;99.90;;;;;;5077544;28;20792;-67
2023/05/21 02:54:29;;;;;;;23.20;20.83;;;15.60;99.90;;;;;;5077217;28;20553;-68
2023/05/21 02:56:56;;;;;;;21.73;19.53;;;15.60;99.90;;;;;;5077472;28;20476;-68
2023/05/21 02:59:23;;;;;;;22.63;20.40;;;15.60;99.90;;;;;;5077250;28;20508;-67
2023/05/21 03:01:51;;;;;;;23.30;20.90;;;15.60;99.90;;;;;;5077308;28;20773;-67
2023/05/21 03:04:20;;;;;;;24.07;21.30;;;15.60;99.90;;;;;;5077024;28;20789;-68
2023/05/21 03:06:47;;;;;;;22.93;20.77;;;15.50;99.90;;;;;;5076919;28;20548;-67
2023/05/21 03:09:14;;;;;;;22.57;20.27;;;15.50;99.90;;;;;;5077204;28;20450;-67
2023/05/21 03:11:43;;;;;;;24.30;21.90;;;15.50;99.90;;;;;;5076840;28;20468;-68
2023/05/21 03:14:10;;;;;;;24.67;22.10;;;15.50;99.90;;;;;;5077113;28;20922;-67
2023/05/21 03:16:37;;;;;;;25.53;21.80;;;15.50;99.90;;;;;;5077283;28;20449;-67
2023/05/21 03:19:05;;;;;;;23.87;21.57;;;15.50;99.90;;;;;;5076692;28;20844;-68
2023/05/21 03:21:32;;;;;;;24.70;21.70;;;15.50;99.90;;;;;;5076586;28;20557;-67
2023/05/21 03:24:00;;;;;;;25.50;22.90;;;15.50;99.90;;;;;;5076495;28;20450;-68
2023/05/21 03:26:28;;;;;;;25.40;22.70;;;15.50;99.90;;;;;;5076704;28;20514;-67
2023/05/21 03:28:55;;;;;;;25.03;21.73;;;15.50;99.90;;;;;;5076944;28;20457;-67
2023/05/21 03:31:22;;;;;;;24.33;21.80;;;15.50;99.90;;;;;;5076583;28;20984;-67
2023/05/21 03:33:50;;;;;;;23.43;21.23;;;15.50;99.90;;;;;;5076876;28;20458;-68
2023/05/21 03:36:18;;;;;;;24.00;21.67;;;15.50;99.90;;;;;;5076565;28;20838;-68
2023/05/21 03:38:45;;;;;;;24.67;22.27;;;15.50;99.90;;;;;;5076423;28;21022;-67
2023/05/21 03:41:12;;;;;;;24.30;21.90;;;15.50;99.90;;;;;;5076829;28;20469;-68
2023/05/21 03:43:39;;;;;;;25.43;22.80;;;15.50;99.90;;;;;;5077149;28;20817;-68
2023/05/21 03:46:06;;;;;;;24.77;22.37;;;15.50;99.90;;;;;;5075574;28;20584;-68
2023/05/21 03:48:33;;;;;;;25.17;22.00;;;15.50;99.90;;;;;;5076713;28;20468;-68
2023/05/21 03:51:00;;;;;;;25.40;22.80;;;15.60;99.90;;;;;;5076673;28;20469;-68
2023/05/21 03:53:28;;;;;;;24.97;22.63;;;15.60;99.90;;;;;;5076555;28;20462;-68
2023/05/21 03:55:55;;;;;;;27.07;23.50;;;15.60;99.90;;;;;;5076337;28;20458;-68
2023/05/21 03:58:22;;;;;;;25.60;23.17;;;15.60;99.90;;;;;;5076119;28;20455;-67
2023/05/21 04:00:49;;;;;;;25.03;22.47;;;15.60;99.90;;;;;;5076373;28;20458;-68
2023/05/21 04:03:16;;;;;;;24.97;22.63;;;15.60;99.90;;;;;;5076483;28;20454;-67
2023/05/21 04:05:43;;;;;;;26.03;23.33;;;15.70;99.90;;;;;;5075849;28;20474;-68
2023/05/21 04:08:10;;;;;;;23.77;21.27;;;15.70;99.90;;;;;;5075504;28;20515;-67
2023/05/21 04:10:38;;;;;;;26.77;24.07;;;15.70;99.90;;;;;;5075845;28;20464;-67
2023/05/21 04:13:05;;;;;;;26.00;23.50;;;15.70;99.90;;;;;;5076433;28;20465;-68
2023/05/21 04:15:34;;;;;;;26.47;23.70;;;15.70;99.90;;;;;;5076024;28;20835;-67
2023/05/21 04:18:01;;;;;;;26.30;23.70;;;15.80;99.90;;;;;;5075708;28;20549;-67
2023/05/21 04:20:27;;;;;;;25.43;22.80;;;15.80;99.90;;;;;;5076139;28;20458;-67
2023/05/21 04:22:55;;;;;;;25.87;23.23;;;15.80;99.90;;;;;;5076069;28;20529;-67
2023/05/21 04:25:22;;;;;;;27.00;24.30;;;15.90;99.90;;;;;;5075763;28;20539;-67
2023/05/21 04:27:51;;;;;;;25.40;22.77;;;15.90;99.90;;;;;;5075679;28;20466;-67
2023/05/21 04:30:18;;;;;;;25.77;23.17;;;15.90;99.90;;;;;;5076154;28;20480;-67
2023/05/21 04:32:46;;;;;;;25.77;23.00;;;16.00;99.90;;;;;;5075604;28;20462;-67
2023/05/21 04:35:14;;;;;;;26.20;23.40;;;16.00;99.90;;;;;;5075516;28;20476;-67
2023/05/21 04:37:44;;;;;;;25.50;22.80;;;16.00;99.90;;;;;;5075605;28;20458;-67
2023/05/21 04:40:16;;;;;;;27.50;24.30;;;16.10;99.90;;;;;;5075081;28;20500;-67
2023/05/21 04:42:44;;;;;;;24.90;22.40;;;16.10;99.90;;;;;;5075573;28;20439;-67
2023/05/21 04:45:12;;;;;;;25.33;22.80;;;16.10;99.90;;;;;;5075059;28;20980;-67
2023/05/21 04:47:39;;;;;;;24.67;22.17;;;16.20;99.90;;;;;;5074891;28;20473;-66
2023/05/21 04:50:07;;;;;;;24.97;22.27;;;16.20;99.90;;;;;;5075292;28;20454;-66
2023/05/21 04:52:34;;;;;;;24.90;22.30;;;16.30;99.90;;;;;;5074975;28;20875;-67
2023/05/21 04:55:01;;;;;;;24.20;21.83;;;16.30;99.90;;;;;;5075141;28;20462;-66
2023/05/21 04:57:29;;;;;;;26.90;23.10;;;16.40;99.90;;;;;;5074957;28;20739;-66
2023/05/21 04:59:56;;;;;;;23.40;21.10;;;16.40;99.90;;;;;;5075040;28;20454;-67
2023/05/21 05:02:24;;;;;;;24.10;21.67;;;16.50;99.90;;;;;;5074554;28;20461;-67
2023/05/21 05:04:51;;;;;;;25.00;22.40;;;16.60;99.90;;;;;;5074683;28;20464;-67
2023/05/21 05:07:18;;;;;;;24.93;22.50;;;16.70;99.90;;;;;;5074847;28;20489;-67
2023/05/21 05:09:45;;;;;;;23.70;21.40;;;16.70;99.90;;;;;;5074700;28;20927;-67
2023/05/21 05:12:12;;;;;;;23.50;21.30;;;16.80;99.90;;;;;;5074646;28;20456;-67
2023/05/21 05:14:38;;;;;;;25.00;22.40;;;16.90;99.90;;;;;;5075017;28;20486;-66
2023/05/21 05:17:08;;;;;;;23.63;21.47;;;16.90;99.90;;;;;;5074817;28;20450;-67
2023/05/21 05:19:36;;;;;;;24.90;22.30;;;17.00;99.90;;;;;;5074945;28;20477;-67
2023/05/21 05:22:03;;;;;;;25.33;22.37;;;17.10;99.90;;;;;;5074595;28;20458;-67
2023/05/21 05:24:30;;;;;;;23.67;21.40;;;17.10;99.90;;;;;;5074584;28;20458;-66
2023/05/21 05:26:57;;;;;;;22.97;20.47;;;17.20;99.90;;;;;;5074787;28;20905;-66
2023/05/21 05:29:23;;;;;;;23.00;20.80;;;17.20;99.90;;;;;;5074421;28;20458;-67
2023/05/21 05:31:50;;;;;;;21.83;19.73;;;17.30;99.90;;;;;;5074668;28;20484;-67
2023/05/21 05:34:17;;;;;;;24.10;21.80;;;17.40;99.90;;;;;;5074245;28;20461;-67
2023/05/21 05:36:45;;;;;;;21.93;19.87;;;17.50;99.90;;;;;;5074104;28;20454;-67
2023/05/21 05:39:12;;;;;;;25.10;22.60;;;17.50;99.90;;;;;;5074334;28;20482;-67
2023/05/21 05:41:39;;;;;;;25.60;23.10;;;17.60;99.90;;;;;;5074572;28;20849;-67
2023/05/21 05:44:06;;;;;;;23.53;21.33;;;17.70;99.90;;;;;;5074607;28;20461;-67
2023/05/21 05:46:32;;;;;;;21.87;19.77;;;17.80;99.90;;;;;;5073918;28;20482;-68
2023/05/21 05:49:02;;;;;;;22.50;20.30;;;17.90;99.90;;;;;;5074462;28;20462;-67
2023/05/21 05:51:29;;;;;;;23.00;20.90;;;17.90;99.90;;;;;;5074468;28;20464;-67
2023/05/21 05:53:58;;;;;;;23.10;20.40;;;18.00;99.90;;;;;;5074409;28;20461;-67
2023/05/21 05:56:25;;;;;;;21.77;19.67;;;18.10;99.90;;;;;;5074418;28;20461;-68
2023/05/21 05:58:54;;;;;;;22.37;20.17;;;18.20;99.90;;;;;;5074430;28;20465;-68
2023/05/21 06:01:23;;;;;;;22.67;20.47;;;18.30;99.90;;;;;;5074238;28;20480;-67
2023/05/21 06:03:50;;;;;;;21.73;19.63;;;18.40;99.90;;;;;;5073908;28;20528;-67
2023/05/21 06:06:17;;;;;;;20.73;18.93;;;18.50;99.90;;;;;;5074422;28;20818;-67
2023/05/21 06:08:45;;;;;;;21.33;19.33;;;18.60;99.90;;;;;;5078294;28;20508;-67
2023/05/21 06:11:15;;;;;;;22.73;20.30;;;18.60;99.90;;;;;;5080892;28;20552;-67
2023/05/21 06:13:42;;;;;;;21.17;19.17;;;18.70;99.90;;;;;;5081136;28;20794;-67
2023/05/21 06:16:10;;;;;;;19.83;18.03;;;18.80;99.90;;;;;;5080964;28;20906;-67
2023/05/21 06:18:37;;;;;;;22.70;19.53;;;18.80;99.90;;;;;;5080749;28;20462;-67
2023/05/21 06:21:04;;;;;;;20.37;18.43;;;18.90;99.90;;;;;;5080491;28;20464;-67
2023/05/21 06:23:31;;;;;;;19.13;17.17;;;19.00;99.90;;;;;;5080413;28;20540;-67
2023/05/21 06:25:58;;;;;;;19.67;17.73;;;19.00;99.90;;;;;;5080707;28;20486;-67
2023/05/21 06:28:26;;;;;;;19.10;17.40;;;19.10;99.90;;;;;;5080461;28;20544;-67
2023/05/21 06:30:53;;;;;;;18.23;16.50;;;19.10;99.90;;;;;;5080718;28;20464;-67
2023/05/21 06:33:20;;;;;;;19.03;17.13;;;19.20;99.90;;;;;;5080676;28;20926;-67
2023/05/21 06:35:47;;;;;;;20.13;18.23;;;19.20;99.90;;;;;;5080750;28;20460;-67
2023/05/21 06:38:14;;;;;;;19.40;17.47;;;19.30;99.90;;;;;;5080576;28;20482;-67
2023/05/21 06:40:40;;;;;;;19.17;17.47;;;19.40;99.90;;;;;;5080716;28;20452;-67
2023/05/21 06:43:07;;;;;;;20.97;17.07;;;19.40;99.90;;;;;;5080408;28;20454;-67
2023/05/21 06:45:35;;;;;;;18.67;16.87;;;19.50;99.90;;;;;;5080028;28;20468;-67
2023/05/21 06:48:02;;;;;;;18.67;16.77;;;19.50;99.90;;;;;;5080137;28;20520;-67
2023/05/21 06:50:29;;;;;;;18.33;16.60;;;19.50;99.90;;;;;;5080162;28;20464;-67
2023/05/21 06:52:56;;;;;;;18.57;16.87;;;19.60;99.90;;;;;;5080343;28;20538;-68
2023/05/21 06:55:23;;;;;;;18.70;17.00;;;19.60;99.90;;;;;;5080161;28;20496;-68
2023/05/21 06:57:49;;;;;;;21.20;19.10;;;19.70;99.90;;;;;;5080398;28;20792;-67
2023/05/21 07:00:17;;;;;;;19.57;17.70;;;19.70;99.90;;;;;;5079994;28;20454;-67
2023/05/21 07:02:45;;;;;;;18.63;16.63;;;19.70;99.90;;;;;;5080025;28;20462;-67
2023/05/21 07:05:12;;;;;;;18.53;16.77;;;19.80;99.90;;;;;;5079896;28;20548;-68
2023/05/21 07:07:39;;;;;;;16.73;15.00;;;19.80;99.90;;;;;;5080197;28;20544;-67
2023/05/21 07:10:07;;;;;;;19.20;17.43;;;19.80;99.90;;;;;;5079957;28;20454;-68
2023/05/21 07:12:34;;;;;;;17.33;15.63;;;19.80;99.90;;;;;;5080260;28;20504;-67
2023/05/21 07:15:01;;;;;;;17.20;15.40;;;19.80;99.90;;;;;;5079901;28;20454;-67
2023/05/21 07:17:27;;;;;;;17.47;15.93;;;19.90;99.90;;;;;;5079931;28;20923;-67
2023/05/21 07:19:56;;;;;;;18.00;16.40;;;19.90;99.90;;;;;;5078777;28;20453;-67
2023/05/21 07:22:22;;;;;;;17.70;16.10;;;19.90;99.90;;;;;;5076912;28;20801;-67
2023/05/21 07:24:49;;;;;;;16.90;15.10;;;19.90;99.90;;;;;;5076692;28;20450;-67
2023/05/21 07:27:16;;;;;;;16.80;15.20;;;20.00;99.90;;;;;;5076830;28;20943;-67
2023/05/21 07:29:43;;;;;;;17.33;15.77;;;20.00;99.90;;;;;;5076967;28;20449;-67
2023/05/21 07:32:10;;;;;;;16.40;14.90;;;20.10;99.90;;;;;;5077240;28;20557;-67
2023/05/21 07:34:36;;;;;;;16.30;14.80;;;20.20;99.90;;;;;;5076947;28;20795;-67
2023/05/21 07:37:05;;;;;;;16.50;14.90;;;20.20;99.90;;;;;;5076991;28;20446;-68
2023/05/21 07:39:31;;;;;;;17.00;14.40;;;20.30;99.90;;;;;;5076314;28;20508;-68
2023/05/21 07:41:58;;;;;;;18.60;14.47;;;20.30;99.90;;;;;;5076463;28;20907;-68
2023/05/21 07:44:25;;;;;;;17.20;15.57;;;20.40;99.90;;;;;;5076353;28;20557;-67
2023/05/21 07:46:52;;;;;;;16.53;14.37;;;20.50;99.90;;;;;;5076109;28;21073;-68
2023/05/21 07:49:19;;;;;;;15.37;14.03;;;20.50;99.90;;;;;;5076717;28;20465;-68
2023/05/21 07:51:46;;;;;;;15.30;13.90;;;20.60;99.90;;;;;;5076525;28;20463;-68
2023/05/21 07:54:14;;;;;;;15.97;14.43;;;20.70;99.90;;;;;;5076585;28;20454;-68
2023/05/21 07:56:41;;;;;;;14.97;13.37;;;20.80;99.90;;;;;;5076023;28;20454;-67
2023/05/21 07:59:08;;;;;;;14.43;13.03;;;20.90;99.90;;;;;;5076305;28;20458;-67
2023/05/21 08:01:36;;;;;;;14.13;12.83;;;21.10;99.90;;;;;;5076367;28;20453;-67
2023/05/21 08:04:04;;;;;;;15.20;13.90;;;21.10;99.90;;;;;;5076275;28;20484;-68
2023/05/21 08:06:32;;;;;;;14.30;12.87;;;21.20;99.90;;;;;;5076032;28;20504;-68
2023/05/21 08:09:00;;;;;;;14.40;13.10;;;21.30;99.90;;;;;;5076001;28;20454;-68
2023/05/21 08:11:28;;;;;;;15.33;13.40;;;21.40;99.90;;;;;;5075849;28;20488;-68
2023/05/21 08:13:55;;;;;;;13.70;12.37;;;21.50;99.90;;;;;;5076231;28;20484;-68
2023/05/21 08:16:24;;;;;;;13.73;12.53;;;21.50;99.90;;;;;;5076147;28;20472;-68
2023/05/21 08:18:51;;;;;;;12.60;11.50;;;21.60;99.90;;;;;;5075774;28;20468;-69
2023/05/21 08:21:18;;;;;;;13.40;12.13;;;21.60;99.90;;;;;;5076105;28;20799;-68
2023/05/21 08:23:45;;;;;;;14.30;12.90;;;21.80;99.90;;;;;;5075558;28;21049;-68
2023/05/21 08:26:15;;;;;;;13.90;12.50;;;21.80;99.90;;;;;;5075450;28;20460;-68
2023/05/21 08:28:43;;;;;;;12.43;11.33;;;21.90;99.90;;;;;;5075597;28;20464;-68
2023/05/21 08:31:13;;;;;;;13.67;12.47;;;22.00;99.90;;;;;;5075114;28;20458;-68
2023/05/21 08:33:40;;;;;;;12.43;11.23;;;22.10;99.90;;;;;;5075604;28;20458;-69
2023/05/21 08:36:07;;;;;;;13.33;11.77;;;22.10;99.90;;;;;;5075789;28;20465;-69
2023/05/21 08:38:35;;;;;;;12.77;11.60;;;22.20;99.90;;;;;;5075138;28;20493;-69
2023/05/21 08:41:04;;;;;;;24.10;14.70;;;22.30;99.90;;;;;;5075664;28;20458;-68
2023/05/21 08:43:31;;;;;;;13.20;11.90;;;22.40;99.90;;;;;;5075617;28;20461;-68
2023/05/21 08:46:03;;;;;;;12.30;11.10;;;22.50;99.90;;;;;;5075400;28;20458;-68
2023/05/21 08:48:31;;;;;;;12.97;11.70;;;22.60;99.90;;;;;;5075662;28;20763;-69
2023/05/21 08:50:59;;;;;;;12.87;10.90;;;22.70;99.90;;;;;;5075508;28;20843;-68
2023/05/21 08:53:27;;;;;;;12.83;11.33;;;22.90;99.90;;;;;;5075208;28;20490;-69
2023/05/21 08:55:55;;;;;;;13.07;11.87;;;23.10;99.90;;;;;;5075073;28;20466;-68
2023/05/21 08:58:23;;;;;;;11.93;10.63;;;23.20;99.90;;;;;;5075038;28;20501;-69
2023/05/21 09:00:50;;;;;;;11.30;10.30;;;23.30;99.90;;;;;;5075112;28;20817;-68
2023/05/21 09:03:21;;;;;;;11.50;10.30;;;23.40;99.90;;;;;;5075276;28;20468;-69
2023/05/21 09:05:48;;;;;;;13.60;10.40;;;23.60;99.90;;;;;;5075489;28;20474;-69
2023/05/21 09:08:19;;;;;;;12.47;11.37;;;23.60;99.90;;;;;;5074861;28;20992;-68
2023/05/21 09:10:50;;;;;;;11.70;10.60;;;23.70;99.90;;;;;;5074721;28;20464;-69
2023/05/21 09:13:17;;;;;;;10.60;9.57;;;23.80;99.90;;;;;;5074798;28;20449;-69
2023/05/21 09:15:44;;;;;;;10.70;9.50;;;23.90;99.90;;;;;;5074754;28;20937;-67
2023/05/21 09:18:11;;;;;;;10.13;9.23;;;24.00;99.90;;;;;;5074874;28;20786;-68
2023/05/21 09:20:40;;;;;;;10.30;9.40;;;24.00;99.90;;;;;;5074687;28;20454;-68
2023/05/21 09:23:11;;;;;;;9.93;9.10;;;24.20;99.90;;;;;;5074815;28;20480;-68
2023/05/21 09:25:39;;;;;;;11.23;10.23;;;24.30;99.90;;;;;;5074876;28;20822;-67
2023/05/21 09:28:12;;;;;;;10.20;9.20;;;24.40;99.90;;;;;;5074700;28;20496;-68
2023/05/21 09:30:44;;;;;;;10.47;9.37;;;24.50;99.90;;;;;;5074972;28;20442;-68
2023/05/21 09:33:11;;;;;;;10.60;9.50;;;24.60;99.90;;;;;;5074811;28;20517;-67
2023/05/21 09:35:45;;;;;;;10.30;9.40;;;24.60;99.90;;;;;;5074484;28;20458;-67
2023/05/21 09:38:12;;;;;;;10.10;9.20;;;24.60;99.90;;;;;;5074203;28;20474;-67
2023/05/21 09:40:45;;;;;;;11.30;9.17;;;24.70;99.90;;;;;;5074604;28;20525;-67
2023/05/21 09:43:14;;;;;;;10.10;9.23;;;24.70;99.90;;;;;;5073280;28;20926;-67
2023/05/21 09:45:52;;;;;;;9.80;8.90;;;24.70;99.90;;;;;;5074298;28;20764;-67
2023/05/21 09:48:33;;;;;;;9.33;8.53;;;24.70;99.90;;;;;;5074097;28;20466;-68
2023/05/21 09:51:12;;;;;;;10.57;9.50;;;24.80;99.90;;;;;;5074366;28;20768;-67
2023/05/21 09:53:50;;;;;;;9.03;8.30;;;24.80;99.90;;;;;;5074191;28;20442;-67
2023/05/21 09:56:23;;;;;;;9.43;8.63;;;24.90;99.90;;;;;;5073669;28;20454;-67
2023/05/21 09:58:53;;;;;;;10.33;9.23;;;24.90;99.90;;;;;;5074246;28;20466;-69
2023/05/21 10:01:20;;;;;;;9.77;8.87;;;25.00;99.90;;;;;;5073953;28;20545;-67
2023/05/21 10:03:50;;;;;;;10.10;9.10;;;25.00;99.90;;;;;;5074432;28;20545;-67
2023/05/21 10:06:19;;;;;;;10.23;8.83;;;25.10;99.90;;;;;;5074604;28;20442;-67
2023/05/21 10:08:51;;;;;;;8.70;7.90;;;25.10;99.90;;;;;;5074230;28;20492;-67
2023/05/21 10:11:22;;;;;;;9.60;8.70;;;25.20;99.90;;;;;;5074024;28;20442;-68
2023/05/21 10:13:57;;;;;;;10.00;9.00;;;25.30;99.90;;;;;;5074171;28;20454;-68
2023/05/21 10:16:24;;;;;;;12.97;8.50;;;25.30;99.90;;;;;;5073821;28;20457;-68
2023/05/21 10:18:54;;;;;;;9.43;7.93;;;25.40;99.90;;;;;;5074407;28;20457;-68
2023/05/21 10:21:23;;;;;;;9.37;8.47;;;25.40;99.90;;;;;;5074036;28;20458;-68
2023/05/21 10:23:51;;;;;;;8.47;7.77;;;25.50;99.90;;;;;;5073646;28;20458;-68
2023/05/21 10:26:20;;;;;;;9.30;8.43;;;25.60;99.90;;;;;;5073949;28;20458;-68
2023/05/21 10:28:47;;;;;;;10.10;8.33;;;25.60;99.90;;;;;;5073721;28;20631;-67
2023/05/21 10:31:15;;;;;;;8.87;8.17;;;25.70;99.90;;;;;;5073822;28;20797;-69
2023/05/21 10:33:43;;;;;;;9.70;8.70;;;25.80;99.90;;;;;;5074276;28;20737;-69
2023/05/21 10:36:09;;;;;;;9.13;8.23;;;25.90;99.90;;;;;;5074391;28;20881;-69
2023/05/21 10:38:39;;;;;;;9.10;8.30;;;26.00;99.90;;;;;;5073560;28;20802;-67
2023/05/21 10:41:07;;;;;;;8.80;8.00;;;26.20;99.90;;;;;;5073710;28;20572;-67
2023/05/21 10:43:56;;;;;;;8.80;7.90;;;26.30;99.90;;;;;;5073767;28;20484;-67
2023/05/21 10:46:48;;;;;;;11.37;8.10;;;26.50;99.90;;;;;;5073662;28;20458;-67
2023/05/21 10:49:48;;;;;;;8.37;7.67;;;26.70;99.90;;;;;;5074021;28;20719;-68
2023/05/21 10:52:33;;;;;;;9.50;8.57;;;26.90;99.90;;;;;;5070570;28;20465;-67
2023/05/21 10:55:13;;;;;;;9.27;8.37;;;27.10;99.90;;;;;;5075603;28;20434;-67
2023/05/21 10:58:10;;;;;;;8.43;7.70;;;27.30;99.90;;;;;;5077334;28;20517;-67
2023/05/21 11:00:38;;;;;;;8.73;7.73;;;27.50;99.90;;;;;;5077351;28;20517;-67
2023/05/21 11:03:06;;;;;;;8.50;7.80;;;27.70;99.90;;;;;;5076856;28;20918;-67
2023/05/21 11:05:51;;;;;;;8.73;8.03;;;27.80;99.90;;;;;;5076978;28;20454;-67
2023/05/21 11:08:22;;;;;;;8.33;7.10;;;27.90;99.90;;;;;;5077115;28;20477;-67
2023/05/21 11:10:56;;;;;;;9.77;7.30;;;28.00;99.90;;;;;;5077188;28;20546;-68
2023/05/21 11:13:24;;;;;;;7.60;6.80;;;28.10;99.90;;;;;;5077607;28;20475;-67
2023/05/21 11:16:06;;;;;;;8.30;7.57;;;28.40;98.80;;;;;;5077290;28;20930;-67
2023/05/21 11:19:01;;;;;;;7.67;6.90;;;28.60;97.20;;;;;;5077312;28;20450;-67
2023/05/21 11:21:33;;;;;;;7.80;7.20;;;28.80;96.40;;;;;;5076856;28;20537;-67
2023/05/21 11:24:07;;;;;;;9.10;7.40;;;29.00;94.70;;;;;;5076734;28;20943;-67
2023/05/21 11:27:03;;;;;;;7.90;7.10;;;29.20;93.20;;;;;;5076674;28;20555;-69
2023/05/21 11:29:40;;;;;;;10.73;7.07;;;29.70;91.80;;;;;;5075110;28;20469;-68
2023/05/21 11:32:09;;;;;;;7.63;6.50;;;30.50;87.20;;;;;;5076872;28;20443;-68
2023/05/21 11:34:40;;;;;;;10.80;7.43;;;31.30;81.30;;;;;;5076832;28;20458;-68
2023/05/21 11:37:26;;;;;;;6.80;6.10;;;32.20;72.40;;;;;;5076713;28;20458;-68
2023/05/21 11:39:53;;;;;;;6.80;6.20;;;33.00;59.30;;;;;;5076170;28;20490;-68
2023/05/21 11:42:38;;;;;;;6.30;5.80;;;33.60;54.70;;;;;;5076652;28;20481;-68
2023/05/21 11:45:06;;;;;;;6.67;6.03;;;34.10;48.50;;;;;;5076811;28;20446;-68
2023/05/21 11:47:32;;;;;;;6.30;5.80;;;34.50;45.50;;;;;;5076038;28;20989;-68
2023/05/21 11:50:01;;;;;;;5.67;5.27;;;34.70;42.50;;;;;;5076717;28;20454;-68
2023/05/21 11:52:29;;;;;;;7.60;6.90;;;34.80;40.60;;;;;;5076558;28;20476;-68
2023/05/21 11:54:57;;;;;;;7.90;6.53;;;35.00;38.80;;;;;;5076259;28;20929;-68
2023/05/21 11:57:29;;;;;;;6.33;5.83;;;35.00;38.10;;;;;;5076346;28;20450;-68
2023/05/21 11:59:58;;;;;;;6.60;5.73;;;35.10;36.30;;;;;;5075866;28;20449;-68
2023/05/21 12:02:27;;;;;;;8.30;7.60;;;35.20;34.50;;;;;;5076184;28;20527;-67
2023/05/21 12:04:54;;;;;;;6.07;5.57;;;35.30;33.80;;;;;;5075663;28;21053;-67
2023/05/21 12:07:21;;;;;;;6.50;5.47;;;35.40;33.40;;;;;;5075292;28;20837;-67
2023/05/21 12:09:50;;;;;;;6.17;5.67;;;35.40;32.80;;;;;;5076051;28;20454;-68
2023/05/21 12:12:18;;;;;;;6.90;5.40;;;35.50;32.20;;;;;;5076313;28;20454;-68
2023/05/21 12:14:47;;;;;;;6.73;6.00;;;35.60;31.90;;;;;;5075827;28;20462;-68
2023/05/21 12:17:18;;;;;;;7.57;5.80;;;35.80;30.80;;;;;;5075966;28;20458;-68
2023/05/21 12:19:46;;;;;;;6.10;5.60;;;36.00;29.50;;;;;;5075468;28;20442;-68
2023/05/21 12:22:14;;;;;;;6.70;5.27;;;36.00;29.60;;;;;;5075634;28;20477;-68
2023/05/21 12:24:42;;;;;;;5.70;5.30;;;36.20;29.30;;;;;;5075529;28;20516;-69
2023/05/21 12:27:11;;;;;;;6.13;5.53;;;36.20;28.70;;;;;;5075603;28;20842;-68
2023/05/21 12:29:39;;;;;;;7.47;6.87;;;36.30;28.20;;;;;;5075890;28;20446;-68
2023/05/21 12:32:08;;;;;;;6.50;5.57;;;36.20;27.60;;;;;;5075367;28;20998;-68
2023/05/21 12:34:41;;;;;;;5.60;5.20;;;36.00;27.50;;;;;;5075636;28;20529;-68
2023/05/21 12:37:08;;;;;;;5.40;4.97;;;35.90;27.10;;;;;;5075786;28;20434;-68
2023/05/21 12:39:43;;;;;;;6.27;5.67;;;35.90;27.20;;;;;;5075122;28;20474;-69